createdAt,value
2022-11-16T00:02:13.892Z,100642.47
2022-11-16T00:04:40.794Z,100643.22
2022-11-16T00:07:07.855Z,100655.06
2022-11-16T00:09:37.229Z,100655.09
2022-11-16T00:12:12.696Z,100649.13
2022-11-16T00:14:39.551Z,100655.84
2022-11-16T00:17:07.155Z,100652.47
2022-11-16T00:19:34.027Z,100645.41
2022-11-16T00:22:02.968Z,100648.19
2022-11-16T00:24:29.542Z,100643.88
2022-11-16T00:26:56.308Z,100633.09
2022-11-16T00:32:08.101Z,100636.44
2022-11-16T00:34:36.489Z,100632.41
2022-11-16T00:37:05.601Z,100629.19
2022-11-16T00:39:32.269Z,100639.69
2022-11-16T00:41:58.910Z,100653.19
2022-11-16T00:44:25.565Z,100651.06
2022-11-16T00:46:52.582Z,100649.66
2022-11-16T00:49:19.215Z,100655.25
2022-11-16T00:51:46.110Z,100648.13
2022-11-16T00:54:12.793Z,100650.13
2022-11-16T00:56:39.480Z,100640.75
2022-11-16T00:59:06.257Z,100641.00
2022-11-16T01:01:33.394Z,100651.16
2022-11-16T01:04:00.053Z,100658.59
2022-11-16T01:06:28.213Z,100655.81
2022-11-16T01:08:54.874Z,100653.06
2022-11-16T01:11:40.129Z,100656.00
2022-11-16T01:14:08.334Z,100650.47
2022-11-16T01:16:35.368Z,100658.63
2022-11-16T01:19:03.836Z,100661.88
2022-11-16T01:21:30.694Z,100664.75
2022-11-16T01:23:57.436Z,100663.66
2022-11-16T01:26:27.098Z,100662.13
2022-11-16T01:28:53.812Z,100655.91
2022-11-16T01:31:23.413Z,100652.72
2022-11-16T01:33:59.526Z,100656.72
2022-11-16T01:36:26.489Z,100643.66
2022-11-16T01:38:53.644Z,100647.03
2022-11-16T01:41:23.649Z,100637.34
2022-11-16T01:43:52.205Z,100639.53
2022-11-16T01:46:18.901Z,100627.81
2022-11-16T01:48:48.697Z,100631.50
2022-11-16T01:51:15.533Z,100625.22
2022-11-16T01:53:42.294Z,100625.06
2022-11-16T01:56:09.259Z,100623.34
2022-11-16T01:58:37.625Z,100617.38
2022-11-16T02:01:04.353Z,100617.78
2022-11-16T02:03:32.357Z,100617.78
2022-11-16T02:06:37.190Z,100628.28
2022-11-16T02:09:53.663Z,100628.28
2022-11-16T02:12:33.863Z,100629.22
2022-11-16T02:15:27.117Z,100625.81
2022-11-16T02:18:24.503Z,100619.16
2022-11-16T02:20:59.382Z,100626.25
2022-11-16T02:23:57.095Z,100622.09
2022-11-16T02:29:22.497Z,100631.47
2022-11-16T02:32:29.998Z,100630.88
2022-11-16T02:35:22.255Z,100622.69
2022-11-16T02:37:57.650Z,100619.47
2022-11-16T02:40:27.204Z,100616.25
2022-11-16T02:43:00.315Z,100619.31
2022-11-16T02:45:30.061Z,100625.19
2022-11-16T02:48:02.186Z,100621.34
2022-11-16T02:50:30.395Z,100608.25
2022-11-16T02:52:57.013Z,100614.25
2022-11-16T02:55:24.256Z,100611.00
2022-11-16T02:57:59.553Z,100615.47
2022-11-16T03:00:58.093Z,100609.97
2022-11-16T03:03:44.822Z,100607.34
2022-11-16T03:06:27.552Z,100602.38
2022-11-16T03:09:01.227Z,100603.78
2022-11-16T03:11:49.500Z,100598.97
2022-11-16T03:14:21.668Z,100602.03
2022-11-16T03:16:51.238Z,100595.13
2022-11-16T03:19:22.991Z,100598.19
2022-11-16T03:22:04.114Z,100603.84
2022-11-16T03:24:36.730Z,100595.84
2022-11-16T03:27:37.596Z,100594.13
2022-11-16T03:30:14.172Z,100594.16
2022-11-16T03:32:51.677Z,100599.63
2022-11-16T03:35:59.260Z,100590.47
2022-11-16T03:38:27.743Z,100594.78
2022-11-16T03:40:57.557Z,100588.44
2022-11-16T03:43:25.363Z,100591.91
2022-11-16T03:45:52.008Z,100594.75
2022-11-16T03:48:18.699Z,100597.72
2022-11-16T03:50:45.477Z,100598.81
2022-11-16T03:53:12.096Z,100590.72
2022-11-16T03:55:38.623Z,100592.16
2022-11-16T03:58:05.430Z,100596.53
2022-11-16T04:00:32.279Z,100598.78
2022-11-16T04:03:01.173Z,100594.53
2022-11-16T04:05:47.917Z,100603.78
2022-11-16T04:08:37.570Z,100594.69
2022-11-16T04:11:22.885Z,100596.41
2022-11-16T04:14:09.362Z,100601.22
2022-11-16T04:16:55.101Z,100597.47
2022-11-16T04:19:40.591Z,100599.34
2022-11-16T04:22:33.044Z,100598.09
2022-11-16T04:25:11.272Z,100602.44
2022-11-16T04:27:57.283Z,100597.03
2022-11-16T04:30:23.918Z,100599.63
2022-11-16T04:33:09.861Z,100601.38
2022-11-16T04:35:55.760Z,100601.94
2022-11-16T04:38:29.594Z,100598.56
2022-11-16T04:40:58.401Z,100598.38
2022-11-16T04:43:24.928Z,100592.84
2022-11-16T04:46:12.163Z,100588.09
2022-11-16T04:48:38.682Z,100585.50
2022-11-16T04:51:05.249Z,100595.19
2022-11-16T04:53:31.736Z,100581.69
2022-11-16T04:56:01.194Z,100588.56
2022-11-16T04:58:27.741Z,100583.34
2022-11-16T05:00:54.310Z,100587.16
2022-11-16T05:03:22.883Z,100574.59
2022-11-16T05:05:52.567Z,100577.63
2022-11-16T05:08:21.634Z,100576.63
2022-11-16T05:10:53.902Z,100571.63
2022-11-16T05:13:24.065Z,100580.84
2022-11-16T05:15:50.562Z,100585.16
2022-11-16T05:18:17.105Z,100580.41
2022-11-16T05:24:00.593Z,100582.97
2022-11-16T05:26:36.338Z,100590.16
2022-11-16T05:29:03.473Z,100584.06
2022-11-16T05:31:30.032Z,100598.50
2022-11-16T05:33:56.515Z,100600.97
2022-11-16T05:36:23.004Z,100606.81
2022-11-16T05:38:55.117Z,100601.81
2022-11-16T05:41:22.733Z,100589.38
2022-11-16T05:43:49.244Z,100604.84
2022-11-16T05:46:15.732Z,100599.31
2022-11-16T05:48:42.314Z,100601.16
2022-11-16T05:51:08.834Z,100597.19
2022-11-16T05:53:37.433Z,100603.38
2022-11-16T05:56:04.265Z,100604.13
2022-11-16T05:58:31.022Z,100604.31
2022-11-16T06:00:58.389Z,100604.28
2022-11-16T06:03:24.963Z,100601.88
2022-11-16T06:05:58.494Z,100609.81
2022-11-16T06:08:25.031Z,100613.41
2022-11-16T06:10:51.497Z,100610.50
2022-11-16T06:13:18.031Z,100617.91
2022-11-16T06:15:50.520Z,100610.25
2022-11-16T06:18:17.032Z,100619.13
2022-11-16T06:20:43.790Z,100622.56
2022-11-16T06:23:12.557Z,100625.63
2022-11-16T06:25:40.633Z,100626.34
2022-11-16T06:28:08.236Z,100623.72
2022-11-16T06:31:14.490Z,100632.47
2022-11-16T06:33:41.456Z,100633.59
2022-11-16T06:36:09.849Z,100630.06
2022-11-16T06:38:36.576Z,100610.22
2022-11-16T06:41:21.456Z,100629.28
2022-11-16T06:43:48.058Z,100625.94
2022-11-16T06:46:14.775Z,100620.63
2022-11-16T06:49:02.244Z,100633.34
2022-11-16T06:51:52.916Z,100632.41
2022-11-16T06:54:19.433Z,100631.63
2022-11-16T06:56:48.528Z,100637.28
2022-11-16T06:59:15.098Z,100636.81
2022-11-16T07:01:43.035Z,100634.56
2022-11-16T07:04:12.482Z,100631.81
2022-11-16T07:06:39.260Z,100633.69
2022-11-16T07:09:11.183Z,100629.03
2022-11-16T07:11:37.744Z,100629.81
2022-11-16T07:14:04.564Z,100633.13
2022-11-16T07:16:37.967Z,100631.69
2022-11-16T07:19:07.779Z,100634.47
2022-11-16T07:21:34.420Z,100631.41
2022-11-16T07:24:01.018Z,100636.69
2022-11-16T07:26:28.845Z,100633.72
2022-11-16T07:28:55.444Z,100629.47
2022-11-16T07:31:21.982Z,100628.59
2022-11-16T07:33:48.470Z,100631.59
2022-11-16T07:36:15.757Z,100625.31
2022-11-16T07:38:42.369Z,100632.94
2022-11-16T07:41:17.444Z,100619.81
2022-11-16T07:43:51.524Z,100627.81
2022-11-16T07:46:45.907Z,100615.06
2022-11-16T07:49:11.365Z,100620.69
2022-11-16T07:51:38.182Z,100621.06
2022-11-16T07:54:14.151Z,100614.00
2022-11-16T07:56:44.659Z,100623.25
2022-11-16T07:59:16.630Z,100623.94
2022-11-16T08:01:49.335Z,100634.56
2022-11-16T08:04:17.946Z,100633.44
2022-11-16T08:06:45.069Z,100634.19
2022-11-16T08:09:12.078Z,100634.38
2022-11-16T08:11:38.618Z,100640.44
2022-11-16T08:14:05.580Z,100643.66
2022-11-16T08:16:34.132Z,100644.78
2022-11-16T08:19:04.660Z,100645.56
2022-11-16T08:21:32.477Z,100657.63
2022-11-16T08:23:59.356Z,100661.88
2022-11-16T08:26:26.142Z,100655.59
2022-11-16T08:28:53.836Z,100660.06
2022-11-16T08:31:24.597Z,100668.91
2022-11-16T08:33:53.988Z,100669.34
2022-11-16T08:36:22.443Z,100667.88
2022-11-16T08:38:51.362Z,100663.50
2022-11-16T08:41:18.756Z,100661.88
2022-11-16T08:43:47.627Z,100659.94
2022-11-16T08:46:15.694Z,100664.81
2022-11-16T08:48:42.715Z,100663.28
2022-11-16T08:51:18.015Z,100660.75
2022-11-16T08:53:52.361Z,100669.41
2022-11-16T08:56:20.566Z,100668.34
2022-11-16T08:58:51.359Z,100666.81
2022-11-16T09:01:23.516Z,100665.75
2022-11-16T09:03:54.137Z,100665.41
2022-11-16T09:06:25.494Z,100662.94
2022-11-16T09:08:57.269Z,100668.84
2022-11-16T09:11:26.678Z,100673.75
2022-11-16T09:13:56.260Z,100662.69
2022-11-16T09:16:24.329Z,100666.69
2022-11-16T09:18:53.732Z,100662.88
2022-11-16T09:21:37.578Z,100655.00
2022-11-16T09:24:04.356Z,100666.06
2022-11-16T09:26:30.847Z,100664.28
2022-11-16T09:29:05.785Z,100663.88
2022-11-16T09:34:22.449Z,100658.44
2022-11-16T09:37:04.417Z,100657.06
2022-11-16T09:39:32.540Z,100656.59
2022-11-16T09:42:20.526Z,100657.34
2022-11-16T09:45:25.113Z,100653.13
2022-11-16T09:48:02.060Z,100643.53
2022-11-16T09:50:41.277Z,100642.25
2022-11-16T09:54:02.697Z,100647.31
2022-11-16T09:56:39.814Z,100633.03
2022-11-16T09:59:18.117Z,100638.06
2022-11-16T10:02:01.200Z,100637.94
2022-11-16T10:04:58.181Z,100643.13
2022-11-16T10:07:41.819Z,100640.88
2022-11-16T10:10:16.583Z,100637.00
2022-11-16T10:13:00.426Z,100644.72
2022-11-16T10:15:42.246Z,100648.53
2022-11-16T10:18:33.197Z,100647.81
2022-11-16T10:21:00.183Z,100644.91
2022-11-16T10:24:11.215Z,100640.06
2022-11-16T10:26:54.231Z,100637.72
2022-11-16T10:29:48.205Z,100638.13
2022-11-16T10:32:35.588Z,100641.25
2022-11-16T10:35:06.130Z,100640.25
2022-11-16T10:37:39.434Z,100633.88
2022-11-16T10:40:26.300Z,100634.50
2022-11-16T10:43:06.672Z,100631.03
2022-11-16T10:45:40.654Z,100627.47
2022-11-16T10:48:46.085Z,100634.91
2022-11-16T10:51:12.686Z,100630.25
2022-11-16T10:53:41.721Z,100629.72
2022-11-16T10:56:28.453Z,100631.47
2022-11-16T10:58:59.286Z,100626.56
2022-11-16T11:01:44.961Z,100626.06
2022-11-16T11:04:32.819Z,100625.22
2022-11-16T11:07:02.185Z,100620.50
2022-11-16T11:09:28.822Z,100614.81
2022-11-16T11:12:34.101Z,100617.78
2022-11-16T11:15:27.327Z,100623.97
2022-11-16T11:18:16.547Z,100624.31
2022-11-16T11:21:15.495Z,100626.44
2022-11-16T11:23:59.453Z,100627.13
2022-11-16T11:26:40.486Z,100623.25
2022-11-16T11:29:37.622Z,100629.00
2022-11-16T11:32:07.769Z,100622.28
2022-11-16T11:34:40.700Z,100620.38
2022-11-16T11:37:18.602Z,100622.63
2022-11-16T11:39:45.211Z,100627.53
2022-11-16T11:42:17.172Z,100627.81
2022-11-16T11:44:52.864Z,100632.28
2022-11-16T11:47:58.154Z,100630.22
2022-11-16T11:50:53.452Z,100628.72
2022-11-16T11:54:11.464Z,100633.81
2022-11-16T11:56:37.983Z,100630.50
2022-11-16T11:59:04.907Z,100635.59
2022-11-16T12:02:02.924Z,100644.84
2022-11-16T12:05:13.719Z,100634.13
2022-11-16T12:07:51.982Z,100639.75
2022-11-16T12:10:39.803Z,100636.91
2022-11-16T12:13:33.075Z,100636.22
2022-11-16T12:16:29.646Z,100629.84
2022-11-16T12:19:37.421Z,100627.56
2022-11-16T12:23:04.703Z,100633.97
2022-11-16T12:26:20.940Z,100633.63
2022-11-16T12:29:26.281Z,100623.97
2022-11-16T12:32:10.608Z,100628.28
2022-11-16T12:34:49.217Z,100630.28
2022-11-16T12:37:35.400Z,100625.03
2022-11-16T12:40:14.115Z,100620.56
2022-11-16T12:42:52.919Z,100622.66
2022-11-16T12:45:52.297Z,100631.38
2022-11-16T12:48:40.610Z,100632.28
2022-11-16T12:51:43.490Z,100627.66
2022-11-16T12:54:38.047Z,100618.03
2022-11-16T12:58:03.326Z,100624.53
2022-11-16T13:00:39.918Z,100619.19
2022-11-16T13:03:38.299Z,100633.06
2022-11-16T13:06:20.810Z,100634.66
2022-11-16T13:09:38.659Z,100634.28
2022-11-16T13:12:20.440Z,100627.59
2022-11-16T13:14:56.340Z,100628.69
2022-11-16T13:17:28.708Z,100625.16
2022-11-16T13:20:14.391Z,100630.06
2022-11-16T13:22:56.871Z,100622.84
2022-11-16T13:25:28.616Z,100623.50
2022-11-16T13:28:33.499Z,100625.28
2022-11-16T13:31:13.274Z,100628.88
2022-11-16T13:33:50.670Z,100620.13
2022-11-16T13:40:39.896Z,100629.88
2022-11-16T13:43:09.481Z,100619.94
2022-11-16T13:45:57.413Z,100635.38
2022-11-16T13:48:38.534Z,100628.75
2022-11-16T13:51:09.432Z,100623.00
2022-11-16T13:54:43.284Z,100628.47
2022-11-16T13:56:50.033Z,100626.19
2022-11-16T13:59:16.655Z,100628.91
2022-11-16T14:01:58.416Z,100623.13
2022-11-16T14:04:40.384Z,100623.03
2022-11-16T14:07:52.548Z,100617.31
2022-11-16T14:10:51.607Z,100626.84
2022-11-16T14:13:30.340Z,100621.72
2022-11-16T14:16:15.291Z,100629.50
2022-11-16T14:18:43.657Z,100626.16
2022-11-16T14:21:19.254Z,100621.31
2022-11-16T14:24:10.693Z,100618.56
2022-11-16T14:27:01.742Z,100620.84
2022-11-16T14:29:41.225Z,100613.47
2022-11-16T14:32:47.972Z,100619.78
2022-11-16T14:35:36.515Z,100613.22
2022-11-16T14:38:06.675Z,100610.22
2022-11-16T14:40:42.919Z,100603.94
2022-11-16T14:43:17.671Z,100612.59
2022-11-16T14:45:53.007Z,100616.34
2022-11-16T14:48:22.644Z,100610.66
2022-11-16T14:51:04.447Z,100610.41
2022-11-16T14:53:32.259Z,100615.09
2022-11-16T14:56:11.421Z,100613.88
2022-11-16T14:58:38.918Z,100610.28
2022-11-16T15:01:08.165Z,100615.56
2022-11-16T15:04:02.494Z,100614.72
2022-11-16T15:06:30.618Z,100606.25
2022-11-16T15:09:00.110Z,100610.75
2022-11-16T15:11:58.095Z,100616.56
2022-11-16T15:14:38.515Z,100608.56
2022-11-16T15:17:10.085Z,100615.16
2022-11-16T15:19:38.913Z,100613.00
2022-11-16T15:22:17.432Z,100615.81
2022-11-16T15:24:44.006Z,100610.34
2022-11-16T15:27:25.440Z,100610.66
2022-11-16T15:29:52.197Z,100612.91
2022-11-16T15:32:18.835Z,100613.22
2022-11-16T15:34:52.546Z,100617.31
2022-11-16T15:37:30.230Z,100612.19
2022-11-16T15:39:58.990Z,100613.25
2022-11-16T15:42:27.046Z,100606.97
2022-11-16T15:44:53.775Z,100611.00
2022-11-16T15:47:24.086Z,100608.34
2022-11-16T15:49:53.079Z,100619.28
2022-11-16T15:53:06.911Z,100611.38
2022-11-16T15:55:36.793Z,100608.94
2022-11-16T15:58:07.608Z,100609.88
2022-11-16T16:00:37.337Z,100609.81
2022-11-16T16:03:25.325Z,100610.44
2022-11-16T16:05:52.722Z,100611.00
2022-11-16T16:08:26.390Z,100611.47
2022-11-16T16:10:59.154Z,100608.25
2022-11-16T16:13:55.887Z,100609.97
2022-11-16T16:16:39.122Z,100617.03
2022-11-16T16:19:31.655Z,100622.50
2022-11-16T16:21:59.534Z,100616.97
2022-11-16T16:24:46.358Z,100615.19
2022-11-16T16:27:18.511Z,100608.56
2022-11-16T16:29:46.566Z,100615.47
2022-11-16T16:32:23.051Z,100615.19
2022-11-16T16:34:50.391Z,100609.81
2022-11-16T16:37:16.884Z,100614.16
2022-11-16T16:39:45.539Z,100606.91
2022-11-16T16:42:15.191Z,100601.38
2022-11-16T16:44:45.392Z,100608.72
2022-11-16T16:47:12.392Z,100612.56
2022-11-16T16:49:39.301Z,100615.41
2022-11-16T16:52:07.408Z,100618.41
2022-11-16T16:54:34.340Z,100619.75
2022-11-16T16:57:02.423Z,100623.44
2022-11-16T16:59:30.163Z,100627.81
2022-11-16T17:02:00.005Z,100624.50
2022-11-16T17:04:54.024Z,100626.75
2022-11-16T17:07:23.552Z,100612.72
2022-11-16T17:09:50.138Z,100617.16
2022-11-16T17:12:19.167Z,100613.25
2022-11-16T17:14:51.501Z,100630.09
2022-11-16T17:17:19.416Z,100626.63
2022-11-16T17:19:46.401Z,100622.41
2022-11-16T17:22:13.975Z,100627.78
2022-11-16T17:24:40.611Z,100626.22
2022-11-16T17:27:08.293Z,100630.16
2022-11-16T17:34:58.586Z,100629.81
2022-11-16T17:37:27.921Z,100626.22
2022-11-16T17:39:55.629Z,100622.47
2022-11-16T17:42:22.217Z,100633.09
2022-11-16T17:44:49.705Z,100627.00
2022-11-16T17:47:17.345Z,100636.50
2022-11-16T17:49:44.081Z,100634.25
2022-11-16T17:52:10.695Z,100636.00
2022-11-16T17:54:37.226Z,100639.03
2022-11-16T17:57:04.291Z,100637.50
2022-11-16T17:59:30.832Z,100640.34
2022-11-16T18:01:57.991Z,100634.47
2022-11-16T18:04:24.729Z,100647.91
2022-11-16T18:06:53.090Z,100642.94
2022-11-16T18:09:19.714Z,100642.09
2022-11-16T18:11:46.323Z,100653.31
2022-11-16T18:14:12.871Z,100639.56
2022-11-16T18:16:43.268Z,100652.03
2022-11-16T18:19:14.457Z,100640.44
2022-11-16T18:21:42.079Z,100653.28
2022-11-16T18:24:12.395Z,100654.25
2022-11-16T18:26:40.468Z,100648.13
2022-11-16T18:29:09.320Z,100670.97
2022-11-16T18:31:35.801Z,100651.03
2022-11-16T18:34:19.486Z,100650.16
2022-11-16T18:36:49.066Z,100640.06
2022-11-16T18:39:23.282Z,100641.44
2022-11-16T18:41:55.893Z,100636.91
2022-11-16T18:44:26.442Z,100636.88
2022-11-16T18:46:59.902Z,100644.09
2022-11-16T18:49:33.446Z,100650.31
2022-11-16T18:52:03.925Z,100648.72
2022-11-16T18:54:32.849Z,100653.31
2022-11-16T18:56:59.325Z,100643.22
2022-11-16T18:59:26.110Z,100653.41
2022-11-16T19:01:54.042Z,100649.28
2022-11-16T19:04:20.526Z,100647.22
2022-11-16T19:06:51.100Z,100646.16
2022-11-16T19:09:24.601Z,100639.72
2022-11-16T19:11:59.645Z,100644.19
2022-11-16T19:14:26.403Z,100642.84
2022-11-16T19:16:57.148Z,100647.97
2022-11-16T19:19:27.752Z,100652.09
2022-11-16T19:21:56.339Z,100646.19
2022-11-16T19:24:23.621Z,100638.63
2022-11-16T19:26:51.708Z,100650.38
2022-11-16T19:29:23.574Z,100650.13
2022-11-16T19:31:56.791Z,100656.09
2022-11-16T19:34:33.011Z,100653.59
2022-11-16T19:37:18.875Z,100656.72
2022-11-16T19:39:45.546Z,100648.66
2022-11-16T19:42:40.090Z,100632.41
2022-11-16T19:45:26.359Z,100649.69
2022-11-16T19:47:56.390Z,100642.50
2022-11-16T19:50:24.905Z,100648.47
2022-11-16T19:52:52.866Z,100644.88
2022-11-16T19:55:19.463Z,100642.19
2022-11-16T19:57:46.013Z,100648.81
2022-11-16T20:00:15.581Z,100645.94
2022-11-16T20:02:43.396Z,100644.06
2022-11-16T20:05:16.173Z,100645.78
2022-11-16T20:07:44.667Z,100639.31
2022-11-16T20:10:11.169Z,100648.84
2022-11-16T20:12:37.641Z,100649.97
2022-11-16T20:15:05.257Z,100647.38
2022-11-16T20:17:31.764Z,100655.72
2022-11-16T20:20:08.612Z,100653.94
2022-11-16T20:22:35.151Z,100659.03
2022-11-16T20:25:01.686Z,100648.38
2022-11-16T20:27:51.394Z,100659.88
2022-11-16T20:30:27.808Z,100661.25
2022-11-16T20:32:58.511Z,100649.38
2022-11-16T20:35:28.096Z,100659.66
2022-11-16T20:37:54.788Z,100655.22
2022-11-16T20:40:25.129Z,100662.56
2022-11-16T20:43:00.112Z,100654.78
2022-11-16T20:45:30.223Z,100659.09
2022-11-16T20:48:02.055Z,100655.16
2022-11-16T20:50:31.285Z,100654.84
2022-11-16T20:52:57.993Z,100659.03
2022-11-16T20:55:27.579Z,100652.06
2022-11-16T20:58:22.619Z,100654.63
2022-11-16T21:00:49.777Z,100662.91
2022-11-16T21:03:17.761Z,100649.88
2022-11-16T21:05:49.106Z,100648.75
2022-11-16T21:08:16.238Z,100646.53
2022-11-16T21:10:46.233Z,100644.47
2022-11-16T21:13:33.688Z,100654.25
2022-11-16T21:16:04.732Z,100656.13
2022-11-16T21:18:35.660Z,100651.06
2022-11-16T21:21:06.919Z,100655.28
2022-11-16T21:23:35.979Z,100656.13
2022-11-16T21:26:14.081Z,100659.75
2022-11-16T21:28:42.289Z,100655.84
2022-11-16T21:31:11.389Z,100652.72
2022-11-16T21:33:38.263Z,100640.38
2022-11-16T21:36:06.245Z,100643.94
2022-11-16T21:38:36.966Z,100647.22
2022-11-16T21:41:04.642Z,100644.22
2022-11-16T21:43:33.797Z,100657.69
2022-11-16T21:46:02.988Z,100639.78
2022-11-16T21:48:32.157Z,100639.06
2022-11-16T21:51:17.506Z,100635.09
2022-11-16T21:53:44.477Z,100638.84
2022-11-16T21:56:15.858Z,100649.94
2022-11-16T21:58:42.669Z,100648.84
2022-11-16T22:01:11.389Z,100649.00
2022-11-16T22:03:39.089Z,100660.13
2022-11-16T22:06:25.907Z,100666.44
2022-11-16T22:08:52.839Z,100659.03
2022-11-16T22:11:22.492Z,100646.13
2022-11-16T22:13:49.774Z,100657.53
2022-11-16T22:16:21.151Z,100659.81
2022-11-16T22:18:47.666Z,100661.44
2022-11-16T22:21:14.429Z,100661.94
2022-11-16T22:23:41.464Z,100661.25
2022-11-16T22:26:10.629Z,100668.00
2022-11-16T22:28:37.948Z,100668.72
2022-11-16T22:31:06.639Z,100661.63
2022-11-16T22:33:35.309Z,100660.44
2022-11-16T22:36:02.217Z,100673.06
2022-11-16T22:38:28.786Z,100667.44
2022-11-16T22:40:56.670Z,100659.13
2022-11-16T22:43:28.297Z,100660.69
2022-11-16T22:46:03.025Z,100657.81
2022-11-16T22:48:34.265Z,100659.84
2022-11-16T22:51:07.960Z,100652.66
2022-11-16T22:53:35.005Z,100656.84
2022-11-16T22:56:08.723Z,100655.66
2022-11-16T22:58:39.006Z,100659.75
2022-11-16T23:01:09.348Z,100649.09
2022-11-16T23:03:36.997Z,100654.84
2022-11-16T23:06:05.220Z,100648.94
2022-11-16T23:08:32.319Z,100658.31
2022-11-16T23:11:25.009Z,100653.84
2022-11-16T23:14:11.936Z,100646.34
2022-11-16T23:16:39.227Z,100654.84
2022-11-16T23:19:25.171Z,100657.50
2022-11-16T23:22:21.207Z,100656.97
2022-11-16T23:25:06.624Z,100653.09
2022-11-16T23:27:40.624Z,100657.00
2022-11-16T23:30:12.499Z,100654.88
2022-11-16T23:32:40.083Z,100644.47
2022-11-16T23:35:06.861Z,100641.03
2022-11-16T23:37:33.674Z,100645.41
2022-11-16T23:40:00.262Z,100643.88
2022-11-16T23:42:45.418Z,100646.47
2022-11-16T23:45:11.935Z,100636.31
2022-11-16T23:47:38.435Z,100637.09
2022-11-16T23:50:05.400Z,100641.09
2022-11-16T23:52:32.147Z,100639.00
2022-11-16T23:55:00.075Z,100633.56
2022-11-16T23:57:26.613Z,100633.53
2022-11-16T23:59:54.002Z,100631.75
